sensor_id;sensor_type;location;lat;lon;timestamp;P1;durP1;ratioP1;P2;durP2;ratioP2
38653;SDS011;24413;52.450;20.706;2023-04-28T04:11:13;72.00;;;37.20;;
38653;SDS011;24413;52.450;20.706;2023-04-28T04:13:39;76.13;;;45.30;;
38653;SDS011;24413;52.450;20.706;2023-04-28T04:16:04;83.97;;;50.72;;
38653;SDS011;24413;52.450;20.706;2023-04-28T04:18:30;84.75;;;56.50;;
38653;SDS011;24413;52.450;20.706;2023-04-28T04:20:56;79.53;;;52.00;;
38653;SDS011;24413;52.450;20.706;2023-04-28T04:23:21;94.32;;;60.58;;
38653;SDS011;24413;52.450;20.706;2023-04-28T04:25:47;98.85;;;66.90;;
38653;SDS011;24413;52.450;20.706;2023-04-28T04:28:13;92.85;;;57.13;;
38653;SDS011;24413;52.450;20.706;2023-04-28T04:30:38;80.90;;;50.75;;
38653;SDS011;24413;52.450;20.706;2023-04-28T04:33:04;65.78;;;40.35;;
38653;SDS011;24413;52.450;20.706;2023-04-28T04:35:29;64.50;;;37.75;;
38653;SDS011;24413;52.450;20.706;2023-04-28T04:37:55;66.50;;;38.00;;
38653;SDS011;24413;52.450;20.706;2023-04-28T04:40:20;52.83;;;32.20;;
38653;SDS011;24413;52.450;20.706;2023-04-28T04:42:46;47.00;;;27.92;;
38653;SDS011;24413;52.450;20.706;2023-04-28T04:45:11;48.95;;;28.63;;
38653;SDS011;24413;52.450;20.706;2023-04-28T04:47:37;54.92;;;33.67;;
38653;SDS011;24413;52.450;20.706;2023-04-28T04:50:02;49.75;;;31.77;;
38653;SDS011;24413;52.450;20.706;2023-04-28T04:52:28;53.08;;;30.48;;
38653;SDS011;24413;52.450;20.706;2023-04-28T04:54:53;52.17;;;31.50;;
38653;SDS011;24413;52.450;20.706;2023-04-28T04:57:20;55.17;;;31.85;;
38653;SDS011;24413;52.450;20.706;2023-04-28T04:59:46;58.38;;;37.25;;
38653;SDS011;24413;52.450;20.706;2023-04-28T05:02:11;55.08;;;32.55;;
38653;SDS011;24413;52.450;20.706;2023-04-28T05:04:36;47.72;;;29.38;;
38653;SDS011;24413;52.450;20.706;2023-04-28T05:07:02;37.78;;;23.23;;
38653;SDS011;24413;52.450;20.706;2023-04-28T05:09:27;42.05;;;22.80;;
38653;SDS011;24413;52.450;20.706;2023-04-28T05:11:54;38.15;;;21.35;;
38653;SDS011;24413;52.450;20.706;2023-04-28T05:14:20;41.42;;;21.20;;
38653;SDS011;24413;52.450;20.706;2023-04-28T05:16:45;43.05;;;23.27;;
38653;SDS011;24413;52.450;20.706;2023-04-28T05:19:11;49.22;;;24.88;;
38653;SDS011;24413;52.450;20.706;2023-04-28T05:21:36;37.33;;;21.95;;
38653;SDS011;24413;52.450;20.706;2023-04-28T05:24:01;32.63;;;20.23;;
38653;SDS011;24413;52.450;20.706;2023-04-28T05:26:27;38.50;;;22.25;;
38653;SDS011;24413;52.450;20.706;2023-04-28T05:28:52;36.55;;;22.38;;
38653;SDS011;24413;52.450;20.706;2023-04-28T05:31:18;35.67;;;23.20;;
38653;SDS011;24413;52.450;20.706;2023-04-28T05:33:43;37.55;;;22.73;;
38653;SDS011;24413;52.450;20.706;2023-04-28T05:36:09;38.47;;;22.42;;
38653;SDS011;24413;52.450;20.706;2023-04-28T05:38:34;44.45;;;23.30;;
38653;SDS011;24413;52.450;20.706;2023-04-28T05:41:01;34.17;;;21.83;;
38653;SDS011;24413;52.450;20.706;2023-04-28T05:43:26;39.35;;;22.52;;
38653;SDS011;24413;52.450;20.706;2023-04-28T05:45:52;41.90;;;24.48;;
38653;SDS011;24413;52.450;20.706;2023-04-28T05:48:18;39.85;;;21.35;;
38653;SDS011;24413;52.450;20.706;2023-04-28T05:50:43;38.55;;;22.27;;
38653;SDS011;24413;52.450;20.706;2023-04-28T05:53:09;35.20;;;19.90;;
38653;SDS011;24413;52.450;20.706;2023-04-28T05:55:35;50.75;;;21.42;;
38653;SDS011;24413;52.450;20.706;2023-04-28T05:58:01;42.25;;;22.98;;
38653;SDS011;24413;52.450;20.706;2023-04-28T06:00:27;43.63;;;24.10;;
38653;SDS011;24413;52.450;20.706;2023-04-28T06:02:52;65.80;;;28.17;;
38653;SDS011;24413;52.450;20.706;2023-04-28T06:05:18;33.03;;;19.70;;
38653;SDS011;24413;52.450;20.706;2023-04-28T06:07:43;30.40;;;17.17;;
38653;SDS011;24413;52.450;20.706;2023-04-28T06:10:09;31.92;;;17.52;;
38653;SDS011;24413;52.450;20.706;2023-04-28T06:12:35;35.03;;;19.42;;
38653;SDS011;24413;52.450;20.706;2023-04-28T06:15:01;42.22;;;19.65;;
38653;SDS011;24413;52.450;20.706;2023-04-28T06:17:27;30.85;;;17.48;;
38653;SDS011;24413;52.450;20.706;2023-04-28T06:19:55;31.75;;;18.10;;
38653;SDS011;24413;52.450;20.706;2023-04-28T06:22:22;34.42;;;18.10;;
38653;SDS011;24413;52.450;20.706;2023-04-28T06:24:48;28.13;;;16.50;;
38653;SDS011;24413;52.450;20.706;2023-04-28T06:27:14;27.15;;;14.57;;
38653;SDS011;24413;52.450;20.706;2023-04-28T06:29:39;31.08;;;15.70;;
38653;SDS011;24413;52.450;20.706;2023-04-28T06:32:05;29.05;;;17.25;;
38653;SDS011;24413;52.450;20.706;2023-04-28T06:34:30;27.45;;;15.07;;
38653;SDS011;24413;52.450;20.706;2023-04-28T06:36:59;27.70;;;15.07;;
38653;SDS011;24413;52.450;20.706;2023-04-28T06:39:25;28.20;;;14.98;;
38653;SDS011;24413;52.450;20.706;2023-04-28T06:41:51;28.70;;;12.48;;
38653;SDS011;24413;52.450;20.706;2023-04-28T06:44:16;16.23;;;8.68;;
38653;SDS011;24413;52.450;20.706;2023-04-28T06:46:41;21.77;;;9.30;;
38653;SDS011;24413;52.450;20.706;2023-04-28T06:49:07;15.13;;;6.90;;
38653;SDS011;24413;52.450;20.706;2023-04-28T06:51:32;20.20;;;9.13;;
38653;SDS011;24413;52.450;20.706;2023-04-28T06:53:58;17.60;;;9.55;;
38653;SDS011;24413;52.450;20.706;2023-04-28T06:56:24;16.05;;;8.73;;
38653;SDS011;24413;52.450;20.706;2023-04-28T06:58:49;17.27;;;7.68;;
38653;SDS011;24413;52.450;20.706;2023-04-28T07:01:15;9.82;;;5.70;;
38653;SDS011;24413;52.450;20.706;2023-04-28T07:03:41;17.75;;;6.88;;
38653;SDS011;24413;52.450;20.706;2023-04-28T07:06:06;11.55;;;7.32;;
38653;SDS011;24413;52.450;20.706;2023-04-28T07:08:32;18.70;;;7.47;;
38653;SDS011;24413;52.450;20.706;2023-04-28T07:10:58;16.67;;;7.10;;
38653;SDS011;24413;52.450;20.706;2023-04-28T07:13:23;12.80;;;6.13;;
38653;SDS011;24413;52.450;20.706;2023-04-28T07:15:49;13.25;;;6.20;;
38653;SDS011;24413;52.450;20.706;2023-04-28T07:18:14;13.38;;;6.30;;
38653;SDS011;24413;52.450;20.706;2023-04-28T07:20:40;21.98;;;6.93;;
38653;SDS011;24413;52.450;20.706;2023-04-28T07:23:05;17.42;;;6.50;;
38653;SDS011;24413;52.450;20.706;2023-04-28T07:25:31;12.77;;;6.10;;
38653;SDS011;24413;52.450;20.706;2023-04-28T07:27:56;12.30;;;5.55;;
38653;SDS011;24413;52.450;20.706;2023-04-28T07:30:22;16.08;;;5.65;;
38653;SDS011;24413;52.450;20.706;2023-04-28T07:32:47;10.50;;;5.18;;
38653;SDS011;24413;52.450;20.706;2023-04-28T07:35:13;7.97;;;5.00;;
38653;SDS011;24413;52.450;20.706;2023-04-28T07:37:38;18.95;;;5.22;;
38653;SDS011;24413;52.450;20.706;2023-04-28T07:40:04;10.48;;;4.20;;
38653;SDS011;24413;52.450;20.706;2023-04-28T07:42:30;9.23;;;4.88;;
38653;SDS011;24413;52.450;20.706;2023-04-28T07:44:56;16.70;;;4.97;;
38653;SDS011;24413;52.450;20.706;2023-04-28T07:47:22;10.38;;;5.10;;
38653;SDS011;24413;52.450;20.706;2023-04-28T07:49:48;8.82;;;4.82;;
38653;SDS011;24413;52.450;20.706;2023-04-28T07:52:14;10.43;;;4.75;;
38653;SDS011;24413;52.450;20.706;2023-04-28T07:54:40;10.20;;;4.00;;
38653;SDS011;24413;52.450;20.706;2023-04-28T07:57:05;8.68;;;3.40;;
38653;SDS011;24413;52.450;20.706;2023-04-28T07:59:34;11.98;;;4.30;;
38653;SDS011;24413;52.450;20.706;2023-04-28T08:01:59;5.70;;;2.47;;
38653;SDS011;24413;52.450;20.706;2023-04-28T08:04:25;9.35;;;3.25;;
38653;SDS011;24413;52.450;20.706;2023-04-28T08:06:50;5.35;;;2.72;;
38653;SDS011;24413;52.450;20.706;2023-04-28T08:09:16;7.25;;;3.50;;
38653;SDS011;24413;52.450;20.706;2023-04-28T08:11:41;5.03;;;2.90;;
38653;SDS011;24413;52.450;20.706;2023-04-28T08:14:07;6.20;;;2.78;;
38653;SDS011;24413;52.450;20.706;2023-04-28T08:16:32;4.57;;;2.85;;
38653;SDS011;24413;52.450;20.706;2023-04-28T08:19:00;6.10;;;3.13;;
38653;SDS011;24413;52.450;20.706;2023-04-28T08:21:26;9.73;;;3.42;;
38653;SDS011;24413;52.450;20.706;2023-04-28T08:23:51;6.10;;;2.92;;
38653;SDS011;24413;52.450;20.706;2023-04-28T08:26:17;8.20;;;3.22;;
38653;SDS011;24413;52.450;20.706;2023-04-28T08:28:42;8.35;;;2.97;;
38653;SDS011;24413;52.450;20.706;2023-04-28T08:31:08;7.63;;;3.45;;
38653;SDS011;24413;52.450;20.706;2023-04-28T08:33:33;6.47;;;3.28;;
38653;SDS011;24413;52.450;20.706;2023-04-28T08:35:59;8.52;;;3.38;;
38653;SDS011;24413;52.450;20.706;2023-04-28T08:38:25;11.35;;;4.20;;
38653;SDS011;24413;52.450;20.706;2023-04-28T08:40:50;7.78;;;4.05;;
38653;SDS011;24413;52.450;20.706;2023-04-28T08:43:16;7.20;;;3.83;;
38653;SDS011;24413;52.450;20.706;2023-04-28T08:45:42;9.38;;;3.75;;
38653;SDS011;24413;52.450;20.706;2023-04-28T08:48:18;8.98;;;5.22;;
38653;SDS011;24413;52.450;20.706;2023-04-28T08:50:51;6.65;;;3.50;;
38653;SDS011;24413;52.450;20.706;2023-04-28T08:53:22;10.65;;;3.63;;
38653;SDS011;24413;52.450;20.706;2023-04-28T08:55:53;4.97;;;3.28;;
38653;SDS011;24413;52.450;20.706;2023-04-28T08:58:23;5.80;;;3.30;;
38653;SDS011;24413;52.450;20.706;2023-04-28T09:00:50;6.07;;;3.08;;
38653;SDS011;24413;52.450;20.706;2023-04-28T09:03:16;5.47;;;3.40;;
38653;SDS011;24413;52.450;20.706;2023-04-28T09:05:42;5.70;;;3.55;;
38653;SDS011;24413;52.450;20.706;2023-04-28T09:08:07;5.53;;;3.25;;
38653;SDS011;24413;52.450;20.706;2023-04-28T09:10:35;8.45;;;3.50;;
38653;SDS011;24413;52.450;20.706;2023-04-28T09:13:02;7.50;;;3.25;;
38653;SDS011;24413;52.450;20.706;2023-04-28T09:15:34;8.40;;;3.05;;
38653;SDS011;24413;52.450;20.706;2023-04-28T09:18:05;7.47;;;3.55;;
38653;SDS011;24413;52.450;20.706;2023-04-28T09:20:32;10.60;;;3.42;;
38653;SDS011;24413;52.450;20.706;2023-04-28T09:23:15;6.90;;;3.58;;
38653;SDS011;24413;52.450;20.706;2023-04-28T09:25:54;6.47;;;3.28;;
38653;SDS011;24413;52.450;20.706;2023-04-28T09:28:26;6.45;;;3.67;;
38653;SDS011;24413;52.450;20.706;2023-04-28T09:30:52;10.32;;;4.57;;
38653;SDS011;24413;52.450;20.706;2023-04-28T09:33:18;5.53;;;3.95;;
38653;SDS011;24413;52.450;20.706;2023-04-28T09:35:45;12.55;;;4.00;;
38653;SDS011;24413;52.450;20.706;2023-04-28T09:38:11;5.55;;;3.08;;
38653;SDS011;24413;52.450;20.706;2023-04-28T09:43:25;5.95;;;2.78;;
38653;SDS011;24413;52.450;20.706;2023-04-28T09:45:55;7.18;;;2.90;;
38653;SDS011;24413;52.450;20.706;2023-04-28T09:50:53;6.18;;;3.45;;
38653;SDS011;24413;52.450;20.706;2023-04-28T09:53:21;6.70;;;3.30;;
38653;SDS011;24413;52.450;20.706;2023-04-28T09:55:48;8.07;;;3.42;;
38653;SDS011;24413;52.450;20.706;2023-04-28T09:58:17;8.75;;;3.22;;
38653;SDS011;24413;52.450;20.706;2023-04-28T10:00:44;8.88;;;2.92;;
38653;SDS011;24413;52.450;20.706;2023-04-28T10:03:09;8.75;;;3.25;;
38653;SDS011;24413;52.450;20.706;2023-04-28T10:05:35;7.35;;;3.10;;
38653;SDS011;24413;52.450;20.706;2023-04-28T10:08:02;6.28;;;2.97;;
38653;SDS011;24413;52.450;20.706;2023-04-28T10:10:28;4.72;;;2.92;;
38653;SDS011;24413;52.450;20.706;2023-04-28T10:12:54;5.55;;;2.75;;
38653;SDS011;24413;52.450;20.706;2023-04-28T10:15:19;5.63;;;2.67;;
38653;SDS011;24413;52.450;20.706;2023-04-28T10:17:45;7.95;;;3.35;;
38653;SDS011;24413;52.450;20.706;2023-04-28T10:20:13;7.15;;;2.97;;
38653;SDS011;24413;52.450;20.706;2023-04-28T10:25:47;8.93;;;3.20;;
38653;SDS011;24413;52.450;20.706;2023-04-28T10:28:13;7.95;;;3.05;;
38653;SDS011;24413;52.450;20.706;2023-04-28T10:30:40;8.82;;;2.85;;
38653;SDS011;24413;52.450;20.706;2023-04-28T10:38:18;4.00;;;2.97;;
38653;SDS011;24413;52.450;20.706;2023-04-28T10:40:48;4.35;;;2.35;;
38653;SDS011;24413;52.450;20.706;2023-04-28T10:43:31;4.05;;;2.80;;
38653;SDS011;24413;52.450;20.706;2023-04-28T10:56:09;8.05;;;2.95;;
38653;SDS011;24413;52.450;20.706;2023-04-28T10:58:36;8.60;;;2.85;;
38653;SDS011;24413;52.450;20.706;2023-04-28T11:03:53;5.47;;;2.90;;
38653;SDS011;24413;52.450;20.706;2023-04-28T11:06:30;4.93;;;2.47;;
38653;SDS011;24413;52.450;20.706;2023-04-28T11:08:58;12.10;;;3.13;;
38653;SDS011;24413;52.450;20.706;2023-04-28T11:11:25;8.30;;;3.40;;
38653;SDS011;24413;52.450;20.706;2023-04-28T11:16:52;5.55;;;2.80;;
38653;SDS011;24413;52.450;20.706;2023-04-28T11:19:18;8.07;;;3.10;;
38653;SDS011;24413;52.450;20.706;2023-04-28T11:21:45;6.70;;;2.92;;
38653;SDS011;24413;52.450;20.706;2023-04-28T11:24:12;6.35;;;3.17;;
38653;SDS011;24413;52.450;20.706;2023-04-28T11:26:37;6.25;;;2.53;;
38653;SDS011;24413;52.450;20.706;2023-04-28T11:29:03;4.32;;;2.72;;
38653;SDS011;24413;52.450;20.706;2023-04-28T11:31:29;6.55;;;3.13;;
38653;SDS011;24413;52.450;20.706;2023-04-28T11:33:56;6.10;;;3.38;;
38653;SDS011;24413;52.450;20.706;2023-04-28T11:36:26;14.07;;;3.33;;
38653;SDS011;24413;52.450;20.706;2023-04-28T11:38:55;5.60;;;2.90;;
38653;SDS011;24413;52.450;20.706;2023-04-28T11:41:21;10.27;;;3.35;;
38653;SDS011;24413;52.450;20.706;2023-04-28T11:43:47;5.57;;;3.00;;
38653;SDS011;24413;52.450;20.706;2023-04-28T11:46:20;4.68;;;3.10;;
38653;SDS011;24413;52.450;20.706;2023-04-28T11:48:46;5.55;;;3.05;;
38653;SDS011;24413;52.450;20.706;2023-04-28T11:51:31;6.00;;;2.75;;
38653;SDS011;24413;52.450;20.706;2023-04-28T11:53:59;8.88;;;4.57;;
38653;SDS011;24413;52.450;20.706;2023-04-28T11:56:25;7.05;;;3.03;;
38653;SDS011;24413;52.450;20.706;2023-04-28T12:01:33;8.73;;;2.85;;
38653;SDS011;24413;52.450;20.706;2023-04-28T12:09:34;10.00;;;3.88;;
38653;SDS011;24413;52.450;20.706;2023-04-28T12:12:01;5.70;;;3.28;;
38653;SDS011;24413;52.450;20.706;2023-04-28T12:14:29;10.25;;;3.28;;
38653;SDS011;24413;52.450;20.706;2023-04-28T12:16:56;5.85;;;3.05;;
38653;SDS011;24413;52.450;20.706;2023-04-28T12:19:22;5.95;;;3.53;;
38653;SDS011;24413;52.450;20.706;2023-04-28T12:21:57;5.72;;;3.28;;
38653;SDS011;24413;52.450;20.706;2023-04-28T12:24:30;7.82;;;3.72;;
38653;SDS011;24413;52.450;20.706;2023-04-28T12:29:45;7.47;;;4.47;;
38653;SDS011;24413;52.450;20.706;2023-04-28T12:32:11;6.35;;;4.10;;
38653;SDS011;24413;52.450;20.706;2023-04-28T12:34:38;11.20;;;4.10;;
38653;SDS011;24413;52.450;20.706;2023-04-28T12:37:05;7.50;;;3.88;;
38653;SDS011;24413;52.450;20.706;2023-04-28T12:39:31;8.60;;;4.50;;
38653;SDS011;24413;52.450;20.706;2023-04-28T12:41:57;8.73;;;4.25;;
38653;SDS011;24413;52.450;20.706;2023-04-28T12:44:24;6.45;;;3.67;;
38653;SDS011;24413;52.450;20.706;2023-04-28T12:46:50;8.55;;;3.97;;
38653;SDS011;24413;52.450;20.706;2023-04-28T12:49:16;5.80;;;3.42;;
38653;SDS011;24413;52.450;20.706;2023-04-28T12:51:41;6.78;;;4.10;;
38653;SDS011;24413;52.450;20.706;2023-04-28T12:54:07;5.50;;;3.33;;
38653;SDS011;24413;52.450;20.706;2023-04-28T12:56:32;8.15;;;5.00;;
38653;SDS011;24413;52.450;20.706;2023-04-28T12:58:58;7.13;;;3.92;;
38653;SDS011;24413;52.450;20.706;2023-04-28T13:01:26;9.68;;;4.85;;
38653;SDS011;24413;52.450;20.706;2023-04-28T13:03:52;11.35;;;5.95;;
38653;SDS011;24413;52.450;20.706;2023-04-28T13:06:18;11.02;;;4.50;;
38653;SDS011;24413;52.450;20.706;2023-04-28T13:08:44;6.57;;;3.78;;
38653;SDS011;24413;52.450;20.706;2023-04-28T13:11:10;8.23;;;4.45;;
38653;SDS011;24413;52.450;20.706;2023-04-28T13:13:35;7.20;;;4.18;;
38653;SDS011;24413;52.450;20.706;2023-04-28T13:16:01;8.48;;;3.60;;
38653;SDS011;24413;52.450;20.706;2023-04-28T13:18:28;5.47;;;3.90;;
38653;SDS011;24413;52.450;20.706;2023-04-28T13:20:54;8.40;;;4.15;;
38653;SDS011;24413;52.450;20.706;2023-04-28T13:23:20;5.75;;;3.95;;
38653;SDS011;24413;52.450;20.706;2023-04-28T13:25:45;10.52;;;4.10;;
38653;SDS011;24413;52.450;20.706;2023-04-28T13:28:11;7.72;;;4.40;;
38653;SDS011;24413;52.450;20.706;2023-04-28T13:30:37;5.88;;;3.78;;
38653;SDS011;24413;52.450;20.706;2023-04-28T13:33:03;9.43;;;4.18;;
38653;SDS011;24413;52.450;20.706;2023-04-28T13:35:28;8.98;;;4.13;;
38653;SDS011;24413;52.450;20.706;2023-04-28T13:37:53;9.50;;;4.10;;
38653;SDS011;24413;52.450;20.706;2023-04-28T13:40:28;11.25;;;4.53;;
38653;SDS011;24413;52.450;20.706;2023-04-28T13:42:54;8.98;;;4.75;;
38653;SDS011;24413;52.450;20.706;2023-04-28T13:45:19;10.13;;;4.47;;
38653;SDS011;24413;52.450;20.706;2023-04-28T13:47:45;7.20;;;4.60;;
38653;SDS011;24413;52.450;20.706;2023-04-28T13:50:12;8.52;;;4.65;;
38653;SDS011;24413;52.450;20.706;2023-04-28T13:52:37;8.23;;;4.47;;
38653;SDS011;24413;52.450;20.706;2023-04-28T13:55:03;9.38;;;4.65;;
38653;SDS011;24413;52.450;20.706;2023-04-28T13:57:28;12.25;;;5.35;;
38653;SDS011;24413;52.450;20.706;2023-04-28T13:59:54;6.75;;;4.10;;
38653;SDS011;24413;52.450;20.706;2023-04-28T14:02:19;7.80;;;4.50;;
38653;SDS011;24413;52.450;20.706;2023-04-28T14:04:45;7.00;;;4.35;;
38653;SDS011;24413;52.450;20.706;2023-04-28T14:07:13;8.90;;;4.25;;
38653;SDS011;24413;52.450;20.706;2023-04-28T14:09:38;6.03;;;4.40;;
38653;SDS011;24413;52.450;20.706;2023-04-28T14:12:04;12.02;;;5.13;;
38653;SDS011;24413;52.450;20.706;2023-04-28T14:14:30;8.25;;;4.72;;
38653;SDS011;24413;52.450;20.706;2023-04-28T14:16:56;9.15;;;4.90;;
38653;SDS011;24413;52.450;20.706;2023-04-28T14:19:22;11.20;;;4.75;;
38653;SDS011;24413;52.450;20.706;2023-04-28T14:21:48;10.18;;;3.95;;
38653;SDS011;24413;52.450;20.706;2023-04-28T14:24:13;10.82;;;4.68;;
38653;SDS011;24413;52.450;20.706;2023-04-28T14:26:39;9.32;;;3.90;;
38653;SDS011;24413;52.450;20.706;2023-04-28T14:29:04;11.07;;;4.70;;
38653;SDS011;24413;52.450;20.706;2023-04-28T14:31:30;9.85;;;4.60;;
38653;SDS011;24413;52.450;20.706;2023-04-28T14:33:55;7.85;;;4.05;;
38653;SDS011;24413;52.450;20.706;2023-04-28T14:36:21;7.22;;;4.32;;
38653;SDS011;24413;52.450;20.706;2023-04-28T14:38:46;5.75;;;4.40;;
38653;SDS011;24413;52.450;20.706;2023-04-28T14:41:12;5.57;;;4.20;;
38653;SDS011;24413;52.450;20.706;2023-04-28T14:43:40;7.70;;;4.93;;
38653;SDS011;24413;52.450;20.706;2023-04-28T14:46:05;8.60;;;4.75;;
38653;SDS011;24413;52.450;20.706;2023-04-28T14:48:31;7.70;;;4.95;;
38653;SDS011;24413;52.450;20.706;2023-04-28T14:50:57;8.95;;;5.07;;
38653;SDS011;24413;52.450;20.706;2023-04-28T14:53:22;5.82;;;4.60;;
38653;SDS011;24413;52.450;20.706;2023-04-28T14:55:48;11.15;;;5.35;;
38653;SDS011;24413;52.450;20.706;2023-04-28T14:58:14;11.27;;;5.43;;
38653;SDS011;24413;52.450;20.706;2023-04-28T15:00:39;9.38;;;5.38;;
38653;SDS011;24413;52.450;20.706;2023-04-28T15:03:05;9.60;;;5.15;;
38653;SDS011;24413;52.450;20.706;2023-04-28T15:05:31;12.23;;;4.60;;
38653;SDS011;24413;52.450;20.706;2023-04-28T15:07:57;9.07;;;4.47;;
38653;SDS011;24413;52.450;20.706;2023-04-28T15:10:22;8.57;;;4.43;;
38653;SDS011;24413;52.450;20.706;2023-04-28T15:12:48;11.32;;;4.80;;
38653;SDS011;24413;52.450;20.706;2023-04-28T15:15:13;15.93;;;5.80;;
38653;SDS011;24413;52.450;20.706;2023-04-28T15:17:39;10.88;;;5.40;;
38653;SDS011;24413;52.450;20.706;2023-04-28T15:20:05;10.43;;;5.30;;
38653;SDS011;24413;52.450;20.706;2023-04-28T15:22:32;11.10;;;4.90;;
38653;SDS011;24413;52.450;20.706;2023-04-28T15:24:57;12.35;;;5.40;;
38653;SDS011;24413;52.450;20.706;2023-04-28T15:27:24;8.63;;;5.20;;
38653;SDS011;24413;52.450;20.706;2023-04-28T15:29:50;9.15;;;5.93;;
38653;SDS011;24413;52.450;20.706;2023-04-28T15:32:15;12.27;;;6.65;;
38653;SDS011;24413;52.450;20.706;2023-04-28T15:34:41;8.93;;;5.45;;
38653;SDS011;24413;52.450;20.706;2023-04-28T15:40:15;8.95;;;4.85;;
38653;SDS011;24413;52.450;20.706;2023-04-28T15:42:41;13.95;;;4.68;;
38653;SDS011;24413;52.450;20.706;2023-04-28T15:45:12;7.15;;;4.47;;
38653;SDS011;24413;52.450;20.706;2023-04-28T15:47:38;7.78;;;4.88;;
38653;SDS011;24413;52.450;20.706;2023-04-28T15:50:04;11.07;;;4.53;;
38653;SDS011;24413;52.450;20.706;2023-04-28T15:52:31;7.47;;;4.55;;
38653;SDS011;24413;52.450;20.706;2023-04-28T15:54:56;13.20;;;4.90;;
38653;SDS011;24413;52.450;20.706;2023-04-28T15:57:23;16.60;;;6.72;;
38653;SDS011;24413;52.450;20.706;2023-04-28T15:59:48;13.55;;;5.53;;
38653;SDS011;24413;52.450;20.706;2023-04-28T16:02:15;17.67;;;12.00;;
38653;SDS011;24413;52.450;20.706;2023-04-28T16:04:41;15.15;;;9.00;;
38653;SDS011;24413;52.450;20.706;2023-04-28T16:07:06;8.75;;;5.20;;
38653;SDS011;24413;52.450;20.706;2023-04-28T16:09:32;9.60;;;5.00;;
38653;SDS011;24413;52.450;20.706;2023-04-28T16:11:57;11.35;;;4.63;;
38653;SDS011;24413;52.450;20.706;2023-04-28T16:14:26;12.52;;;5.47;;
38653;SDS011;24413;52.450;20.706;2023-04-28T16:16:51;8.35;;;5.57;;
38653;SDS011;24413;52.450;20.706;2023-04-28T16:19:17;31.08;;;16.52;;
38653;SDS011;24413;52.450;20.706;2023-04-28T16:21:42;46.50;;;22.08;;
38653;SDS011;24413;52.450;20.706;2023-04-28T16:24:08;49.42;;;21.48;;
38653;SDS011;24413;52.450;20.706;2023-04-28T16:26:34;21.63;;;9.45;;
38653;SDS011;24413;52.450;20.706;2023-04-28T16:29:00;16.27;;;7.65;;
38653;SDS011;24413;52.450;20.706;2023-04-28T16:31:25;13.07;;;5.20;;
38653;SDS011;24413;52.450;20.706;2023-04-28T16:33:51;9.23;;;6.05;;
38653;SDS011;24413;52.450;20.706;2023-04-28T16:36:16;9.18;;;6.57;;
38653;SDS011;24413;52.450;20.706;2023-04-28T16:38:42;15.48;;;6.68;;
38653;SDS011;24413;52.450;20.706;2023-04-28T16:41:08;20.42;;;12.43;;
38653;SDS011;24413;52.450;20.706;2023-04-28T16:43:34;40.67;;;23.58;;
38653;SDS011;24413;52.450;20.706;2023-04-28T16:46:02;20.13;;;12.13;;
38653;SDS011;24413;52.450;20.706;2023-04-28T16:48:28;18.80;;;8.95;;
38653;SDS011;24413;52.450;20.706;2023-04-28T16:50:53;10.20;;;7.47;;
38653;SDS011;24413;52.450;20.706;2023-04-28T16:53:19;9.55;;;6.38;;
38653;SDS011;24413;52.450;20.706;2023-04-28T16:55:44;11.50;;;6.53;;
38653;SDS011;24413;52.450;20.706;2023-04-28T16:58:10;13.75;;;6.25;;
38653;SDS011;24413;52.450;20.706;2023-04-28T17:00:36;10.70;;;7.07;;
38653;SDS011;24413;52.450;20.706;2023-04-28T17:03:01;32.10;;;19.65;;
38653;SDS011;24413;52.450;20.706;2023-04-28T17:05:27;31.23;;;20.08;;
38653;SDS011;24413;52.450;20.706;2023-04-28T17:07:53;28.52;;;13.43;;
38653;SDS011;24413;52.450;20.706;2023-04-28T17:10:19;20.42;;;10.93;;
38653;SDS011;24413;52.450;20.706;2023-04-28T17:12:46;19.90;;;9.88;;
38653;SDS011;24413;52.450;20.706;2023-04-28T17:15:14;15.10;;;8.52;;
38653;SDS011;24413;52.450;20.706;2023-04-28T17:17:41;11.00;;;6.10;;
38653;SDS011;24413;52.450;20.706;2023-04-28T17:20:07;16.65;;;6.18;;
38653;SDS011;24413;52.450;20.706;2023-04-28T17:22:33;12.50;;;5.50;;
38653;SDS011;24413;52.450;20.706;2023-04-28T17:24:59;10.68;;;6.10;;
38653;SDS011;24413;52.450;20.706;2023-04-28T17:27:24;12.02;;;5.10;;
38653;SDS011;24413;52.450;20.706;2023-04-28T17:29:50;8.52;;;5.22;;
38653;SDS011;24413;52.450;20.706;2023-04-28T17:32:15;8.63;;;5.20;;
38653;SDS011;24413;52.450;20.706;2023-04-28T17:34:41;9.98;;;5.28;;
38653;SDS011;24413;52.450;20.706;2023-04-28T17:37:06;7.25;;;5.13;;
38653;SDS011;24413;52.450;20.706;2023-04-28T17:39:32;11.18;;;5.95;;
38653;SDS011;24413;52.450;20.706;2023-04-28T17:41:57;8.80;;;5.95;;
38653;SDS011;24413;52.450;20.706;2023-04-28T17:44:23;8.20;;;5.22;;
38653;SDS011;24413;52.450;20.706;2023-04-28T17:46:49;8.88;;;5.30;;
38653;SDS011;24413;52.450;20.706;2023-04-28T17:49:14;8.43;;;4.90;;
38653;SDS011;24413;52.450;20.706;2023-04-28T17:51:40;13.95;;;5.18;;
38653;SDS011;24413;52.450;20.706;2023-04-28T17:54:05;11.85;;;5.00;;
38653;SDS011;24413;52.450;20.706;2023-04-28T17:56:34;8.98;;;5.28;;
38653;SDS011;24413;52.450;20.706;2023-04-28T17:59:03;10.68;;;5.45;;
38653;SDS011;24413;52.450;20.706;2023-04-28T18:01:29;13.13;;;5.10;;
38653;SDS011;24413;52.450;20.706;2023-04-28T18:03:56;14.30;;;5.15;;
38653;SDS011;24413;52.450;20.706;2023-04-28T18:06:22;12.27;;;5.47;;
38653;SDS011;24413;52.450;20.706;2023-04-28T18:08:48;12.82;;;5.70;;
38653;SDS011;24413;52.450;20.706;2023-04-28T18:11:13;7.72;;;5.38;;
38653;SDS011;24413;52.450;20.706;2023-04-28T18:13:39;7.50;;;5.18;;
38653;SDS011;24413;52.450;20.706;2023-04-28T18:16:05;9.93;;;6.30;;
38653;SDS011;24413;52.450;20.706;2023-04-28T18:18:34;7.05;;;5.60;;
38653;SDS011;24413;52.450;20.706;2023-04-28T18:21:00;10.05;;;5.60;;
38653;SDS011;24413;52.450;20.706;2023-04-28T18:23:26;9.27;;;5.05;;
38653;SDS011;24413;52.450;20.706;2023-04-28T18:25:52;7.75;;;4.78;;
38653;SDS011;24413;52.450;20.706;2023-04-28T18:28:17;11.35;;;5.40;;
38653;SDS011;24413;52.450;20.706;2023-04-28T18:30:43;12.73;;;5.10;;
38653;SDS011;24413;52.450;20.706;2023-04-28T18:33:08;11.95;;;5.43;;
38653;SDS011;24413;52.450;20.706;2023-04-28T18:35:34;10.05;;;5.97;;
38653;SDS011;24413;52.450;20.706;2023-04-28T18:38:01;21.08;;;6.95;;
38653;SDS011;24413;52.450;20.706;2023-04-28T18:40:36;13.23;;;7.00;;
38653;SDS011;24413;52.450;20.706;2023-04-28T18:45:29;19.50;;;7.47;;
38653;SDS011;24413;52.450;20.706;2023-04-28T18:47:56;15.57;;;8.43;;
38653;SDS011;24413;52.450;20.706;2023-04-28T18:50:22;19.17;;;9.98;;
38653;SDS011;24413;52.450;20.706;2023-04-28T18:52:49;15.23;;;10.57;;
38653;SDS011;24413;52.450;20.706;2023-04-28T18:55:14;20.70;;;10.02;;
38653;SDS011;24413;52.450;20.706;2023-04-28T18:57:40;15.90;;;9.43;;
38653;SDS011;24413;52.450;20.706;2023-04-28T19:00:06;17.65;;;10.88;;
38653;SDS011;24413;52.450;20.706;2023-04-28T19:02:33;18.58;;;8.82;;
38653;SDS011;24413;52.450;20.706;2023-04-28T19:05:00;17.73;;;8.52;;
38653;SDS011;24413;52.450;20.706;2023-04-28T19:07:27;14.98;;;8.35;;
38653;SDS011;24413;52.450;20.706;2023-04-28T19:09:53;22.40;;;7.75;;
38653;SDS011;24413;52.450;20.706;2023-04-28T19:12:19;22.00;;;8.82;;
38653;SDS011;24413;52.450;20.706;2023-04-28T19:14:44;83.15;;;28.73;;
38653;SDS011;24413;52.450;20.706;2023-04-28T19:17:10;94.47;;;33.25;;